createdAt,value
2023-05-25T00:01:49.532Z,98687.66
2023-05-25T00:04:19.596Z,98675.00
2023-05-25T00:06:47.711Z,98684.81
2023-05-25T00:09:16.399Z,98673.66
2023-05-25T00:11:44.954Z,98686.28
2023-05-25T00:14:12.480Z,98682.91
2023-05-25T00:16:40.844Z,98686.50
2023-05-25T00:19:10.312Z,98695.91
2023-05-25T00:21:41.515Z,98686.28
2023-05-25T00:24:09.105Z,98686.16
2023-05-25T00:26:36.540Z,98682.31
2023-05-25T00:29:04.718Z,98680.97
2023-05-25T00:31:36.901Z,98684.59
2023-05-25T00:34:04.517Z,98685.69
2023-05-25T00:36:32.229Z,98693.25
2023-05-25T00:38:59.721Z,98692.53
2023-05-25T00:41:26.972Z,98678.56
2023-05-25T00:43:56.854Z,98696.22
2023-05-25T00:46:24.247Z,98689.03
2023-05-25T00:48:52.868Z,98686.47
2023-05-25T00:51:20.507Z,98690.28
2023-05-25T00:53:48.090Z,98694.16
2023-05-25T00:56:23.021Z,98694.03
2023-05-25T00:58:52.886Z,98698.59
2023-05-25T01:01:21.869Z,98684.66
2023-05-25T01:03:53.482Z,98693.66
2023-05-25T01:06:26.866Z,98680.88
2023-05-25T01:08:56.590Z,98686.88
2023-05-25T01:11:28.089Z,98680.44
2023-05-25T01:13:55.817Z,98682.84
2023-05-25T01:16:23.553Z,98688.69
2023-05-25T01:18:52.321Z,98683.22
2023-05-25T01:21:42.185Z,98691.69
2023-05-25T01:24:22.109Z,98689.94
2023-05-25T01:27:12.881Z,98690.44
2023-05-25T01:29:41.797Z,98683.72
2023-05-25T01:32:10.073Z,98685.88
2023-05-25T01:34:37.339Z,98682.59
2023-05-25T01:37:06.389Z,98688.88
2023-05-25T01:39:36.500Z,98684.13
2023-05-25T01:42:04.356Z,98679.06
2023-05-25T01:44:31.771Z,98679.16
2023-05-25T01:47:04.310Z,98675.03
2023-05-25T01:49:52.228Z,98673.41
2023-05-25T01:52:26.920Z,98671.38
2023-05-25T01:55:15.926Z,98677.66
2023-05-25T01:57:44.547Z,98673.13
2023-05-25T02:00:15.255Z,98671.47
2023-05-25T02:02:44.331Z,98683.63
2023-05-25T02:05:13.315Z,98676.25
2023-05-25T02:07:41.709Z,98678.13
2023-05-25T02:10:09.496Z,98674.25
2023-05-25T02:12:37.069Z,98665.13
2023-05-25T02:15:05.454Z,98665.00
2023-05-25T02:17:32.837Z,98656.59
2023-05-25T02:20:00.428Z,98654.53
2023-05-25T02:22:28.011Z,98655.72
2023-05-25T02:24:55.381Z,98657.19
2023-05-25T02:27:22.759Z,98657.50
2023-05-25T02:29:50.761Z,98647.50
2023-05-25T02:32:18.187Z,98652.34
2023-05-25T02:34:47.026Z,98644.28
2023-05-25T02:37:14.401Z,98639.63
2023-05-25T02:39:42.508Z,98636.72
2023-05-25T02:42:10.123Z,98632.31
2023-05-25T02:44:37.756Z,98633.75
2023-05-25T02:47:06.904Z,98625.72
2023-05-25T02:49:34.606Z,98624.34
2023-05-25T02:52:02.563Z,98628.34
2023-05-25T02:54:29.761Z,98618.88
2023-05-25T02:56:58.428Z,98622.56
2023-05-25T02:59:25.720Z,98620.69
2023-05-25T03:01:53.383Z,98632.13
2023-05-25T03:04:21.718Z,98614.22
2023-05-25T03:06:49.194Z,98629.88
2023-05-25T03:09:19.267Z,98626.31
2023-05-25T03:11:49.936Z,98612.53
2023-05-25T03:14:20.209Z,98619.91
2023-05-25T03:16:56.790Z,98620.50
2023-05-25T03:19:26.161Z,98607.75
2023-05-25T03:21:53.747Z,98621.75
2023-05-25T03:24:21.638Z,98609.66
2023-05-25T03:26:49.633Z,98614.19
2023-05-25T03:29:18.011Z,98606.50
2023-05-25T03:31:46.189Z,98609.63
2023-05-25T03:34:14.873Z,98610.72
2023-05-25T03:36:45.574Z,98606.47
2023-05-25T03:39:13.723Z,98613.69
2023-05-25T03:41:43.141Z,98614.31
2023-05-25T03:44:11.878Z,98614.63
2023-05-25T03:46:40.238Z,98617.53
2023-05-25T03:49:08.818Z,98593.56
2023-05-25T03:51:36.414Z,98608.44
2023-05-25T03:54:03.719Z,98602.13
2023-05-25T03:56:31.824Z,98610.09
2023-05-25T03:59:00.353Z,98598.63
2023-05-25T04:01:29.798Z,98605.78
2023-05-25T04:03:57.686Z,98605.97
2023-05-25T04:06:29.821Z,98601.88
2023-05-25T04:08:58.016Z,98599.78
2023-05-25T04:11:27.405Z,98601.13
2023-05-25T04:13:55.347Z,98595.16
2023-05-25T04:16:26.824Z,98586.34
2023-05-25T04:18:55.926Z,98598.41
2023-05-25T04:21:23.619Z,98600.03
2023-05-25T04:23:50.940Z,98607.53
2023-05-25T04:26:19.520Z,98607.44
2023-05-25T04:28:49.486Z,98596.75
2023-05-25T04:31:26.887Z,98606.75
2023-05-25T04:34:14.195Z,98607.38
2023-05-25T04:36:49.694Z,98609.94
2023-05-25T04:39:18.920Z,98608.31
2023-05-25T04:41:53.056Z,98592.00
2023-05-25T04:44:20.582Z,98601.69
2023-05-25T04:46:52.322Z,98596.47
2023-05-25T04:49:28.416Z,98598.69
2023-05-25T04:51:56.175Z,98594.31
2023-05-25T04:54:24.601Z,98586.94
2023-05-25T04:56:52.123Z,98589.00
2023-05-25T04:59:20.705Z,98584.91
2023-05-25T05:01:48.691Z,98585.03
2023-05-25T05:04:18.127Z,98592.66
2023-05-25T05:06:46.186Z,98590.78
2023-05-25T05:09:19.145Z,98582.56
2023-05-25T05:11:47.610Z,98588.03
2023-05-25T05:14:15.078Z,98577.88
2023-05-25T05:16:44.865Z,98581.16
2023-05-25T05:19:12.494Z,98572.66
2023-05-25T05:21:41.337Z,98597.34
2023-05-25T05:24:09.326Z,98582.16
2023-05-25T05:26:55.467Z,98580.38
2023-05-25T05:29:29.865Z,98575.41
2023-05-25T05:31:58.112Z,98581.69
2023-05-25T05:34:26.394Z,98575.69
2023-05-25T05:36:57.879Z,98572.72
2023-05-25T05:39:26.765Z,98570.81
2023-05-25T05:41:54.983Z,98568.84
2023-05-25T05:44:23.473Z,98569.00
2023-05-25T05:46:59.885Z,98567.81
2023-05-25T05:49:32.120Z,98579.03
2023-05-25T05:52:02.764Z,98569.22
2023-05-25T05:54:30.311Z,98571.78
2023-05-25T05:57:02.385Z,98565.00
2023-05-25T05:59:30.082Z,98570.19
2023-05-25T06:01:58.056Z,98587.09
2023-05-25T06:04:28.421Z,98569.88
2023-05-25T06:06:57.133Z,98575.00
2023-05-25T06:09:26.273Z,98587.06
2023-05-25T06:11:53.857Z,98577.78
2023-05-25T06:14:21.503Z,98580.16
2023-05-25T06:16:49.426Z,98582.47
2023-05-25T06:19:17.772Z,98574.88
2023-05-25T06:21:45.373Z,98565.97
2023-05-25T06:24:14.677Z,98571.16
2023-05-25T06:26:42.250Z,98577.31
2023-05-25T06:29:09.926Z,98578.75
2023-05-25T06:31:38.677Z,98577.59
2023-05-25T06:34:06.367Z,98579.75
2023-05-25T06:36:33.964Z,98589.09
2023-05-25T06:39:01.592Z,98586.19
2023-05-25T06:41:30.662Z,98588.19
2023-05-25T06:43:58.716Z,98584.69
2023-05-25T06:46:42.326Z,98582.03
2023-05-25T06:49:10.948Z,98579.56
2023-05-25T06:51:38.700Z,98582.09
2023-05-25T06:54:08.415Z,98579.22
2023-05-25T06:56:36.341Z,98584.44
2023-05-25T06:59:04.029Z,98583.06
2023-05-25T07:01:31.382Z,98581.69
2023-05-25T07:03:58.721Z,98573.25
2023-05-25T07:06:25.931Z,98570.53
2023-05-25T07:08:54.984Z,98577.94
2023-05-25T07:11:23.179Z,98575.41
2023-05-25T07:13:50.349Z,98575.94
2023-05-25T07:16:17.849Z,98574.06
2023-05-25T07:18:45.300Z,98571.88
2023-05-25T07:21:13.160Z,98574.06
2023-05-25T07:23:41.032Z,98559.81
2023-05-25T07:26:08.422Z,98561.19
2023-05-25T07:28:35.649Z,98565.53
2023-05-25T07:31:03.264Z,98563.81
2023-05-25T07:33:31.129Z,98558.91
2023-05-25T07:35:58.289Z,98558.59
2023-05-25T07:38:25.780Z,98559.84
2023-05-25T07:40:53.734Z,98568.84
2023-05-25T07:43:23.092Z,98569.09
2023-05-25T07:45:50.295Z,98563.78
2023-05-25T07:48:17.872Z,98559.84
2023-05-25T07:50:45.238Z,98552.69
2023-05-25T07:53:12.783Z,98550.38
2023-05-25T07:55:40.301Z,98552.81
2023-05-25T07:58:08.681Z,98552.19
2023-05-25T08:00:36.244Z,98545.13
2023-05-25T08:03:04.714Z,98563.81
2023-05-25T08:05:32.235Z,98545.28
2023-05-25T08:08:00.074Z,98544.41
2023-05-25T08:10:36.604Z,98556.69
2023-05-25T08:13:03.850Z,98547.28
2023-05-25T08:15:31.756Z,98547.28
2023-05-25T08:17:59.345Z,98548.06
2023-05-25T08:20:27.067Z,98556.25
2023-05-25T08:22:54.486Z,98550.09
2023-05-25T08:25:22.064Z,98546.91
2023-05-25T08:27:50.127Z,98548.75
2023-05-25T08:30:17.676Z,98552.38
2023-05-25T08:32:48.160Z,98556.72
2023-05-25T08:35:17.230Z,98553.78
2023-05-25T08:37:45.115Z,98546.69
2023-05-25T08:40:16.088Z,98537.47
2023-05-25T08:42:44.562Z,98550.91
2023-05-25T08:45:22.623Z,98533.97
2023-05-25T08:47:57.802Z,98538.88
2023-05-25T08:50:26.987Z,98535.44
2023-05-25T08:52:54.453Z,98532.63
2023-05-25T08:55:23.580Z,98537.94
2023-05-25T08:57:56.450Z,98544.19
2023-05-25T09:00:30.216Z,98537.88
2023-05-25T09:03:26.914Z,98544.75
2023-05-25T09:05:55.892Z,98541.34
2023-05-25T09:08:23.611Z,98549.38
2023-05-25T09:10:51.608Z,98546.19
2023-05-25T09:13:22.807Z,98546.66
2023-05-25T09:15:51.802Z,98532.94
2023-05-25T09:18:19.659Z,98548.44
2023-05-25T09:20:47.719Z,98530.84
2023-05-25T09:23:16.289Z,98530.22
2023-05-25T09:25:44.555Z,98525.31
2023-05-25T09:30:42.890Z,98527.00
2023-05-25T09:33:13.626Z,98534.88
2023-05-25T09:35:41.586Z,98533.41
2023-05-25T09:38:09.279Z,98542.34
2023-05-25T09:40:37.798Z,98530.69
2023-05-25T09:43:05.389Z,98539.03
2023-05-25T09:45:32.865Z,98535.06
2023-05-25T09:48:01.317Z,98541.72
2023-05-25T09:50:28.960Z,98543.13
2023-05-25T09:52:58.678Z,98544.97
2023-05-25T09:55:33.874Z,98540.00
2023-05-25T09:58:13.431Z,98540.09
2023-05-25T10:00:40.982Z,98539.84
2023-05-25T10:03:08.640Z,98538.91
2023-05-25T10:05:36.191Z,98539.22
2023-05-25T10:08:03.571Z,98539.69
2023-05-25T10:10:31.163Z,98542.16
2023-05-25T10:12:58.707Z,98539.16
2023-05-25T10:15:27.199Z,98542.84
2023-05-25T10:17:55.426Z,98524.75
2023-05-25T10:20:29.083Z,98538.34
2023-05-25T10:23:20.766Z,98538.19
2023-05-25T10:25:48.840Z,98545.81
2023-05-25T10:28:28.783Z,98543.72
2023-05-25T10:30:57.402Z,98546.66
2023-05-25T10:33:25.246Z,98556.81
2023-05-25T10:36:03.166Z,98540.47
2023-05-25T10:38:39.489Z,98552.25
2023-05-25T10:41:09.253Z,98544.63
2023-05-25T10:43:37.445Z,98547.34
2023-05-25T10:46:06.458Z,98550.50
2023-05-25T10:48:45.556Z,98556.00
2023-05-25T10:51:14.030Z,98563.63
2023-05-25T10:53:49.982Z,98553.50
2023-05-25T10:56:17.721Z,98546.81
2023-05-25T10:58:46.659Z,98560.34
2023-05-25T11:01:14.761Z,98550.25
2023-05-25T11:03:48.617Z,98546.81
2023-05-25T11:06:21.543Z,98556.25
2023-05-25T11:09:03.871Z,98557.88
2023-05-25T11:11:44.274Z,98559.22
2023-05-25T11:14:30.376Z,98563.97
2023-05-25T11:17:14.478Z,98552.06
2023-05-25T11:19:43.496Z,98555.63
2023-05-25T11:22:46.765Z,98558.81
2023-05-25T11:25:39.502Z,98557.66
2023-05-25T11:28:07.761Z,98557.50
2023-05-25T11:30:35.512Z,98565.19
2023-05-25T11:33:04.096Z,98550.41
2023-05-25T11:35:37.302Z,98552.66
2023-05-25T11:38:08.640Z,98551.88
2023-05-25T11:40:40.145Z,98548.72
2023-05-25T11:43:08.240Z,98548.38
2023-05-25T11:45:37.558Z,98542.69
2023-05-25T11:48:05.987Z,98543.63
2023-05-25T11:50:34.038Z,98552.03
2023-05-25T11:53:05.999Z,98550.25
2023-05-25T11:55:34.204Z,98531.41
2023-05-25T11:58:01.673Z,98544.16
2023-05-25T12:00:29.760Z,98544.53
2023-05-25T12:02:57.973Z,98553.91
2023-05-25T12:05:25.821Z,98553.53
2023-05-25T12:07:53.855Z,98544.97
2023-05-25T12:10:21.647Z,98550.13
2023-05-25T12:12:52.364Z,98553.66
2023-05-25T12:15:23.641Z,98550.38
2023-05-25T12:17:51.541Z,98563.88
2023-05-25T12:20:19.234Z,98557.22
2023-05-25T12:22:47.347Z,98561.75
2023-05-25T12:25:15.856Z,98565.59
2023-05-25T12:27:46.379Z,98560.91
2023-05-25T12:30:14.269Z,98557.78
2023-05-25T12:33:03.783Z,98570.69
2023-05-25T12:35:46.687Z,98565.66
2023-05-25T12:38:18.348Z,98555.72
2023-05-25T12:40:46.181Z,98555.28
2023-05-25T12:43:14.982Z,98559.56
2023-05-25T12:45:42.794Z,98548.97
2023-05-25T12:48:11.106Z,98560.63
2023-05-25T12:50:38.732Z,98570.69
2023-05-25T12:53:06.309Z,98568.94
2023-05-25T12:55:35.446Z,98564.00
2023-05-25T12:58:07.642Z,98560.38
2023-05-25T13:00:39.122Z,98571.13
2023-05-25T13:03:09.685Z,98561.47
2023-05-25T13:05:37.813Z,98567.13
2023-05-25T13:08:06.137Z,98571.00
2023-05-25T13:10:33.964Z,98571.47
2023-05-25T13:13:02.158Z,98574.75
2023-05-25T13:15:29.919Z,98580.50
2023-05-25T13:17:58.485Z,98571.94
2023-05-25T13:20:27.395Z,98588.53
2023-05-25T13:22:57.945Z,98593.63
2023-05-25T13:25:28.347Z,98584.81
2023-05-25T13:27:57.630Z,98582.72
2023-05-25T13:30:25.134Z,98583.09
2023-05-25T13:32:53.377Z,98585.47
2023-05-25T13:35:38.225Z,98586.41
2023-05-25T13:38:09.197Z,98589.16
2023-05-25T13:40:38.443Z,98579.72
2023-05-25T13:43:06.371Z,98585.63
2023-05-25T13:45:34.143Z,98593.75
2023-05-25T13:48:03.256Z,98590.72
2023-05-25T13:50:33.029Z,98590.13
2023-05-25T13:53:00.272Z,98591.03
2023-05-25T13:55:27.913Z,98602.34
2023-05-25T13:57:55.913Z,98601.78
2023-05-25T14:00:23.781Z,98607.06
2023-05-25T14:02:51.552Z,98596.69
2023-05-25T14:05:20.077Z,98591.66
2023-05-25T14:07:47.961Z,98591.03
2023-05-25T14:10:15.996Z,98596.13
2023-05-25T14:12:44.161Z,98609.88
2023-05-25T14:15:14.502Z,98616.94
2023-05-25T14:17:42.952Z,98620.50
2023-05-25T14:20:11.552Z,98631.44
2023-05-25T14:22:40.712Z,98627.91
2023-05-25T14:25:08.558Z,98622.97
2023-05-25T14:27:36.649Z,98624.22
2023-05-25T14:30:04.465Z,98618.22
2023-05-25T14:32:31.820Z,98621.06
2023-05-25T14:34:59.311Z,98614.47
2023-05-25T14:37:27.198Z,98615.28
2023-05-25T14:39:54.929Z,98611.25
2023-05-25T14:42:22.562Z,98611.38
2023-05-25T14:44:50.041Z,98604.31
2023-05-25T14:47:17.783Z,98613.03
2023-05-25T14:49:45.144Z,98616.88
2023-05-25T14:52:12.880Z,98613.47
2023-05-25T14:54:44.638Z,98622.63
2023-05-25T14:57:12.400Z,98624.06
2023-05-25T14:59:40.169Z,98635.47
2023-05-25T15:02:07.838Z,98631.94
2023-05-25T15:04:35.521Z,98631.44
2023-05-25T15:07:03.587Z,98630.84
2023-05-25T15:09:33.078Z,98623.66
2023-05-25T15:12:01.914Z,98630.50
2023-05-25T15:14:29.166Z,98642.13
2023-05-25T15:16:57.243Z,98622.38
2023-05-25T15:19:25.606Z,98624.34
2023-05-25T15:21:52.939Z,98632.59
2023-05-25T15:24:20.523Z,98622.09
2023-05-25T15:26:47.998Z,98622.63
2023-05-25T15:29:15.541Z,98626.59
2023-05-25T15:31:43.079Z,98617.88
2023-05-25T15:34:10.957Z,98627.63
2023-05-25T15:36:38.175Z,98626.88
2023-05-25T15:39:08.548Z,98627.34
2023-05-25T15:41:36.295Z,98629.91
2023-05-25T15:44:07.874Z,98631.44
2023-05-25T15:46:35.859Z,98631.03
2023-05-25T15:49:03.624Z,98639.38
2023-05-25T15:51:32.493Z,98633.03
2023-05-25T15:54:00.043Z,98637.00
2023-05-25T15:56:27.756Z,98636.63
2023-05-25T15:58:55.595Z,98622.38
2023-05-25T16:01:23.484Z,98622.97
2023-05-25T16:03:51.265Z,98622.75
2023-05-25T16:06:18.951Z,98619.44
2023-05-25T16:08:46.314Z,98622.75
2023-05-25T16:11:14.093Z,98621.31
2023-05-25T16:13:41.327Z,98624.63
2023-05-25T16:16:09.698Z,98628.75
2023-05-25T16:18:37.678Z,98626.56
2023-05-25T16:21:05.495Z,98631.38
2023-05-25T16:23:33.212Z,98630.69
2023-05-25T16:26:00.856Z,98630.09
2023-05-25T16:28:28.195Z,98613.88
2023-05-25T16:30:55.844Z,98625.16
2023-05-25T16:33:23.563Z,98619.16
2023-05-25T16:35:53.729Z,98625.75
2023-05-25T16:38:21.563Z,98619.63
2023-05-25T16:40:48.926Z,98621.44
2023-05-25T16:43:16.551Z,98616.94
2023-05-25T16:45:44.212Z,98620.09
2023-05-25T16:48:12.038Z,98623.97
2023-05-25T16:50:40.170Z,98618.72
2023-05-25T16:53:07.890Z,98622.53
2023-05-25T16:55:35.693Z,98619.94
2023-05-25T16:58:03.740Z,98610.00
2023-05-25T17:00:31.358Z,98611.53
2023-05-25T17:02:59.040Z,98606.00
2023-05-25T17:05:26.943Z,98611.63
2023-05-25T17:07:54.419Z,98615.38
2023-05-25T17:10:22.132Z,98611.84
2023-05-25T17:12:49.405Z,98613.09
2023-05-25T17:15:17.199Z,98619.13
2023-05-25T17:17:44.679Z,98600.22
2023-05-25T17:20:12.201Z,98605.41
2023-05-25T17:22:39.844Z,98599.81
2023-05-25T17:25:09.320Z,98602.91
2023-05-25T17:27:36.975Z,98604.78
2023-05-25T17:30:04.971Z,98602.09
2023-05-25T17:32:32.678Z,98602.28
2023-05-25T17:35:00.600Z,98603.56
2023-05-25T17:37:28.369Z,98617.31
2023-05-25T17:39:56.157Z,98602.38
2023-05-25T17:42:23.856Z,98614.00
2023-05-25T17:44:51.256Z,98610.78
2023-05-25T17:47:18.947Z,98616.63
2023-05-25T17:49:46.537Z,98612.13
2023-05-25T17:52:14.133Z,98616.09
2023-05-25T17:54:41.491Z,98616.78
2023-05-25T17:57:09.404Z,98621.31
2023-05-25T17:59:36.870Z,98628.41
2023-05-25T18:05:10.796Z,98632.84
2023-05-25T18:07:38.570Z,98639.50
2023-05-25T18:19:20.849Z,98638.41
2023-05-25T18:21:50.264Z,98631.19
2023-05-25T18:24:17.865Z,98636.97
2023-05-25T18:26:46.401Z,98634.38
2023-05-25T18:29:14.001Z,98637.41
2023-05-25T18:31:46.000Z,98629.47
2023-05-25T18:34:13.409Z,98633.88
2023-05-25T18:36:40.730Z,98630.41
2023-05-25T18:39:08.354Z,98627.72
2023-05-25T18:41:36.374Z,98637.91
2023-05-25T18:44:03.974Z,98622.84
2023-05-25T18:46:31.865Z,98626.63
2023-05-25T18:49:00.339Z,98629.16
2023-05-25T18:51:27.785Z,98627.13
2023-05-25T18:53:55.873Z,98624.84
2023-05-25T18:56:23.426Z,98625.50
2023-05-25T18:58:54.510Z,98624.47
2023-05-25T19:01:22.882Z,98622.81
2023-05-25T19:03:50.800Z,98621.63
2023-05-25T19:06:18.950Z,98623.69
2023-05-25T19:08:49.765Z,98620.28
2023-05-25T19:30:05.381Z,98613.41
2023-05-25T19:32:33.833Z,98624.19
2023-05-25T19:35:01.810Z,98621.47
2023-05-25T19:37:29.101Z,98621.88
2023-05-25T19:39:58.133Z,98626.00
2023-05-25T19:42:25.561Z,98625.16
2023-05-25T19:44:53.208Z,98619.97
2023-05-25T19:47:21.725Z,98626.19
2023-05-25T19:49:54.465Z,98616.47
2023-05-25T19:52:22.108Z,98622.91
2023-05-25T19:54:50.784Z,98617.09
2023-05-25T19:57:19.706Z,98619.16
2023-05-25T19:59:47.185Z,98614.19
2023-05-25T20:02:14.862Z,98615.03
2023-05-25T20:04:42.716Z,98627.22
2023-05-25T20:07:10.537Z,98619.53
2023-05-25T20:09:38.999Z,98628.00
2023-05-25T20:12:07.059Z,98616.00
2023-05-25T20:14:35.163Z,98612.72
2023-05-25T20:17:02.362Z,98617.44
2023-05-25T20:19:29.776Z,98606.66
2023-05-25T20:21:59.600Z,98609.31
2023-05-25T20:24:26.978Z,98613.31
2023-05-25T20:26:56.480Z,98607.56
2023-05-25T20:29:23.909Z,98610.31
2023-05-25T20:31:54.644Z,98601.22
2023-05-25T20:34:22.630Z,98604.94
2023-05-25T21:33:00.515Z,98613.59
2023-05-25T21:35:42.662Z,98617.13
2023-05-25T21:38:20.320Z,98611.97
2023-05-25T21:40:56.475Z,98617.50
2023-05-25T21:43:56.679Z,98615.84
2023-05-25T21:46:23.921Z,98607.16
2023-05-25T21:48:51.436Z,98626.16
2023-05-25T21:51:18.770Z,98613.31
2023-05-25T21:53:48.761Z,98613.28
2023-05-25T21:56:16.531Z,98620.31
2023-05-25T21:58:44.539Z,98607.03
2023-05-25T22:01:12.184Z,98607.00
2023-05-25T22:03:39.579Z,98613.81
2023-05-25T22:06:07.093Z,98620.88
2023-05-25T22:08:35.555Z,98629.13
2023-05-25T22:11:02.821Z,98630.94
2023-05-25T22:13:30.045Z,98624.53
2023-05-25T22:15:57.430Z,98632.81
2023-05-25T22:18:25.231Z,98633.63
2023-05-25T22:20:52.936Z,98627.97
2023-05-25T22:23:21.089Z,98635.63
2023-05-25T22:25:48.423Z,98633.47
2023-05-25T22:28:16.517Z,98640.25
2023-05-25T22:30:44.207Z,98638.50
2023-05-25T22:33:11.851Z,98645.38
2023-05-25T22:35:39.450Z,98645.88
2023-05-25T22:38:06.997Z,98642.63
2023-05-25T22:40:34.656Z,98640.38
2023-05-25T22:43:01.813Z,98647.16
2023-05-25T22:45:29.178Z,98650.69
2023-05-25T22:47:56.554Z,98653.16
2023-05-25T22:50:24.080Z,98651.78
2023-05-25T22:52:51.890Z,98648.22
2023-05-25T22:55:19.205Z,98652.59
2023-05-25T22:57:46.977Z,98650.28
2023-05-25T23:00:15.010Z,98649.88
2023-05-25T23:02:42.605Z,98643.00
2023-05-25T23:05:10.811Z,98647.31
2023-05-25T23:07:38.315Z,98649.19
2023-05-25T23:10:06.097Z,98650.88
2023-05-25T23:12:33.309Z,98654.09
2023-05-25T23:15:01.133Z,98660.06
2023-05-25T23:17:28.872Z,98644.25
2023-05-25T23:19:56.405Z,98653.34
2023-05-25T23:22:24.116Z,98645.47
2023-05-25T23:24:51.786Z,98644.63
2023-05-25T23:27:19.250Z,98640.97
2023-05-25T23:29:46.391Z,98646.97
2023-05-25T23:32:13.859Z,98649.25
2023-05-25T23:34:41.482Z,98644.22
2023-05-25T23:37:09.285Z,98647.94
2023-05-25T23:39:36.725Z,98647.94
2023-05-25T23:42:04.367Z,98654.09
2023-05-25T23:44:31.917Z,98654.97
2023-05-25T23:46:59.601Z,98652.22
2023-05-25T23:49:26.916Z,98647.09
2023-05-25T23:51:54.474Z,98640.31
2023-05-25T23:54:22.113Z,98643.47
2023-05-25T23:56:49.916Z,98646.28
2023-05-25T23:59:17.697Z,98649.38
